createdAt,value
2022-08-08T00:00:55.240Z,20.27
2022-08-08T00:03:43.235Z,20.48
2022-08-08T00:07:28.582Z,16.67
2022-08-08T00:10:35.858Z,17.80
2022-08-08T00:14:17.619Z,16.02
2022-08-08T00:16:58.390Z,14.07
2022-08-08T00:20:03.716Z,14.50
2022-08-08T00:22:56.550Z,16.55
2022-08-08T00:25:56.472Z,19.63
2022-08-08T00:28:51.642Z,18.08
2022-08-08T00:32:14.793Z,18.75
2022-08-08T00:35:20.901Z,25.27
2022-08-08T00:38:32.136Z,32.00
2022-08-08T00:42:08.996Z,30.70
2022-08-08T00:45:36.209Z,29.10
2022-08-08T00:49:01.094Z,24.20
2022-08-08T00:52:19.648Z,24.13
2022-08-08T00:55:36.064Z,25.98
2022-08-08T00:59:43.989Z,23.85
2022-08-08T01:04:02.282Z,18.95
2022-08-08T01:07:01.461Z,20.20
2022-08-08T01:10:23.248Z,24.95
2022-08-08T01:13:43.949Z,26.58
2022-08-08T01:16:51.283Z,30.17
2022-08-08T01:20:18.724Z,31.02
2022-08-08T01:24:02.573Z,29.10
2022-08-08T01:26:55.663Z,32.33
2022-08-08T01:30:04.377Z,40.05
2022-08-08T01:33:16.193Z,32.55
2022-08-08T01:36:35.982Z,26.40
2022-08-08T01:39:41.927Z,32.92
2022-08-08T01:43:18.188Z,49.85
2022-08-08T01:46:15.706Z,36.58
2022-08-08T01:49:37.083Z,37.90
2022-08-08T01:54:08.046Z,34.72
2022-08-08T01:56:30.863Z,28.60
2022-08-08T01:59:38.120Z,29.38
2022-08-08T02:03:55.897Z,26.15
2022-08-08T02:06:48.895Z,27.75
2022-08-08T02:10:11.405Z,26.65
2022-08-08T02:13:54.100Z,24.35
2022-08-08T02:17:00.134Z,25.50
2022-08-08T02:20:15.950Z,27.67
2022-08-08T02:23:38.405Z,29.92
2022-08-08T02:26:35.009Z,32.00
2022-08-08T02:29:58.890Z,27.55
2022-08-08T02:34:00.499Z,26.52
2022-08-08T02:37:53.050Z,21.58
2022-08-08T02:40:49.799Z,20.85
2022-08-08T02:44:39.288Z,20.83
2022-08-08T02:47:38.632Z,19.63
2022-08-08T02:50:55.838Z,19.45
2022-08-08T02:54:09.362Z,21.63
2022-08-08T02:57:44.594Z,29.92
2022-08-08T03:00:53.172Z,67.28
2022-08-08T03:05:04.334Z,21.00
2022-08-08T03:08:37.450Z,21.67
2022-08-08T03:12:02.214Z,22.17
2022-08-08T03:15:57.617Z,23.83
2022-08-08T03:18:41.785Z,18.98
2022-08-08T03:21:40.792Z,20.65
2022-08-08T03:24:41.503Z,21.27
2022-08-08T03:27:56.333Z,24.67
2022-08-08T03:31:22.004Z,27.02
2022-08-08T03:34:01.288Z,21.17
2022-08-08T03:36:54.513Z,23.52
2022-08-08T03:39:52.049Z,19.13
2022-08-08T03:42:52.578Z,23.13
2022-08-08T03:46:06.099Z,20.88
2022-08-08T03:49:10.017Z,22.55
2022-08-08T03:52:17.471Z,19.88
2022-08-08T03:55:20.294Z,16.45
2022-08-08T03:58:37.329Z,21.27
2022-08-08T04:02:12.616Z,20.15
2022-08-08T04:04:50.694Z,23.23
2022-08-08T04:07:43.304Z,24.08
2022-08-08T04:10:37.557Z,22.88
2022-08-08T04:13:30.863Z,21.73
2022-08-08T04:16:41.398Z,23.80
2022-08-08T04:19:37.766Z,23.88
2022-08-08T04:22:30.103Z,22.63
2022-08-08T04:25:20.844Z,23.40
2022-08-08T04:28:35.317Z,22.15
2022-08-08T04:31:56.755Z,21.30
2022-08-08T04:34:42.821Z,22.02
2022-08-08T04:37:39.532Z,21.27
2022-08-08T04:40:53.449Z,19.52
2022-08-08T04:43:48.794Z,18.92
2022-08-08T04:46:45.465Z,17.80
2022-08-08T04:50:00.939Z,18.95
2022-08-08T04:52:48.507Z,17.30
2022-08-08T04:55:56.308Z,20.83
2022-08-08T04:58:51.844Z,20.02
2022-08-08T05:01:48.775Z,15.05
2022-08-08T05:04:44.565Z,18.98
2022-08-08T05:07:38.119Z,16.25
2022-08-08T05:10:35.501Z,14.75
2022-08-08T05:13:27.241Z,17.42
2022-08-08T05:16:53.188Z,15.00
2022-08-08T05:20:08.983Z,20.13
2022-08-08T05:22:47.735Z,25.45
2022-08-08T05:25:41.639Z,21.00
2022-08-08T05:28:56.625Z,23.38
2022-08-08T05:32:04.459Z,23.88
2022-08-08T05:34:55.893Z,18.92
2022-08-08T05:38:30.549Z,21.20
2022-08-08T05:41:30.397Z,21.95
2022-08-08T05:44:31.160Z,17.85
2022-08-08T05:47:24.143Z,21.33
2022-08-08T05:50:20.709Z,18.73
2022-08-08T05:53:23.070Z,14.38
2022-08-08T05:56:22.769Z,17.98
2022-08-08T05:59:59.260Z,16.13
2022-08-08T06:03:07.247Z,16.52
2022-08-08T06:06:32.545Z,18.02
2022-08-08T06:09:41.540Z,17.85
2022-08-08T06:12:47.007Z,16.92
2022-08-08T06:15:51.167Z,12.95
2022-08-08T06:18:52.022Z,16.25
2022-08-08T06:21:51.841Z,18.08
2022-08-08T06:25:14.423Z,15.73
2022-08-08T06:28:14.674Z,22.42
2022-08-08T06:31:09.569Z,22.38
2022-08-08T06:34:25.566Z,15.52
2022-08-08T06:37:25.695Z,18.23
2022-08-08T06:40:26.637Z,15.18
2022-08-08T06:43:20.666Z,16.05
2022-08-08T06:46:23.857Z,15.40
2022-08-08T06:49:17.158Z,18.88
2022-08-08T06:52:09.554Z,15.93
2022-08-08T06:55:02.405Z,15.88
2022-08-08T06:57:57.359Z,17.83
2022-08-08T07:00:52.159Z,15.77
2022-08-08T07:04:38.811Z,23.58
2022-08-08T07:07:11.028Z,24.02
2022-08-08T07:10:12.635Z,16.45
2022-08-08T07:13:05.521Z,14.35
2022-08-08T07:16:11.759Z,18.17
2022-08-08T07:19:14.393Z,20.48
2022-08-08T07:22:18.285Z,16.88
2022-08-08T07:25:14.590Z,13.43
2022-08-08T07:28:19.566Z,12.68
2022-08-08T07:31:16.105Z,11.63
2022-08-08T07:34:09.669Z,14.50
2022-08-08T07:37:02.070Z,9.63
2022-08-08T07:40:03.762Z,10.48
2022-08-08T07:42:56.637Z,17.80
2022-08-08T07:46:05.631Z,21.08
2022-08-08T07:48:59.115Z,15.73
2022-08-08T07:51:53.688Z,10.88
2022-08-08T07:54:57.563Z,11.48
2022-08-08T07:57:57.354Z,8.60
2022-08-08T08:00:52.499Z,14.05
2022-08-08T08:04:06.257Z,9.60
2022-08-08T08:07:06.007Z,11.73
2022-08-08T08:09:57.520Z,7.95
2022-08-08T08:12:55.493Z,14.00
2022-08-08T08:15:46.372Z,13.25
2022-08-08T08:18:51.879Z,10.25
2022-08-08T08:21:57.369Z,10.43
2022-08-08T08:25:10.759Z,13.48
2022-08-08T08:28:04.322Z,11.95
2022-08-08T08:31:06.137Z,11.45
2022-08-08T08:33:58.992Z,13.50
2022-08-08T08:36:51.410Z,11.07
2022-08-08T08:40:01.919Z,11.85
2022-08-08T08:42:58.216Z,10.15
2022-08-08T08:45:57.151Z,11.43
2022-08-08T08:48:49.552Z,10.05
2022-08-08T08:51:51.258Z,11.27
2022-08-08T08:54:44.853Z,14.68
2022-08-08T08:57:35.313Z,15.02
2022-08-08T09:00:26.002Z,13.43
2022-08-08T09:03:19.327Z,19.88
2022-08-08T09:06:26.434Z,14.80
2022-08-08T09:09:35.422Z,11.48
2022-08-08T09:12:38.410Z,13.73
2022-08-08T09:15:40.811Z,13.60
2022-08-08T09:18:36.450Z,18.70
2022-08-08T09:21:59.582Z,18.30
2022-08-08T09:24:38.300Z,19.95
2022-08-08T09:27:41.860Z,14.48
2022-08-08T09:30:43.595Z,19.00
2022-08-08T09:34:14.746Z,19.75
2022-08-08T09:37:10.128Z,18.50
2022-08-08T09:40:10.782Z,22.23
2022-08-08T09:43:16.611Z,25.38
2022-08-08T09:46:16.866Z,26.70
2022-08-08T09:49:42.164Z,24.63
2022-08-08T09:52:57.464Z,27.02
2022-08-08T09:56:04.217Z,23.77
2022-08-08T09:59:25.889Z,26.35
2022-08-08T10:02:26.052Z,26.65
2022-08-08T10:05:25.061Z,27.20
2022-08-08T10:08:15.255Z,25.17
2022-08-08T10:11:12.023Z,27.08
2022-08-08T10:14:28.276Z,25.27
2022-08-08T10:18:03.478Z,27.80
2022-08-08T10:20:58.082Z,26.08
2022-08-08T10:23:58.625Z,21.60
2022-08-08T10:26:59.175Z,21.67
2022-08-08T10:29:59.270Z,20.33
2022-08-08T10:33:00.285Z,13.05
2022-08-08T10:36:06.844Z,15.63
2022-08-08T10:39:14.064Z,20.42
2022-08-08T10:42:16.367Z,22.42
2022-08-08T10:45:09.783Z,33.17
2022-08-08T10:48:03.912Z,25.13
2022-08-08T10:50:54.287Z,31.85
2022-08-08T10:53:57.261Z,31.95
2022-08-08T10:56:59.072Z,23.58
2022-08-08T11:00:03.351Z,21.27
2022-08-08T11:02:54.375Z,22.45
2022-08-08T11:05:51.783Z,21.38
2022-08-08T11:08:53.802Z,20.23
2022-08-08T11:12:06.286Z,14.48
2022-08-08T11:15:03.161Z,20.17
2022-08-08T11:18:00.509Z,20.58
2022-08-08T11:20:52.836Z,20.20
2022-08-08T11:23:45.023Z,20.50
2022-08-08T11:26:53.973Z,18.80
2022-08-08T11:30:04.345Z,32.38
2022-08-08T11:33:05.216Z,22.58
2022-08-08T11:36:02.999Z,23.25
2022-08-08T11:38:56.063Z,17.98
2022-08-08T11:41:47.631Z,15.82
2022-08-08T11:44:41.773Z,15.40
2022-08-08T11:47:39.984Z,17.52
2022-08-08T11:50:43.620Z,14.10
2022-08-08T11:53:43.018Z,17.75
2022-08-08T11:56:56.190Z,16.08
2022-08-08T12:00:01.513Z,18.05
2022-08-08T12:03:24.724Z,22.38
2022-08-08T12:06:23.585Z,18.23
2022-08-08T12:09:17.041Z,25.55
2022-08-08T12:12:10.030Z,35.88
2022-08-08T12:15:05.075Z,44.63
2022-08-08T12:17:55.548Z,57.10
2022-08-08T12:20:45.890Z,42.58
2022-08-08T12:23:43.346Z,35.25
2022-08-08T12:26:54.040Z,33.63
2022-08-08T12:29:57.986Z,29.02
2022-08-08T12:32:51.819Z,33.28
2022-08-08T12:35:52.245Z,26.70
2022-08-08T12:38:55.339Z,29.83
2022-08-08T12:41:56.690Z,29.77
2022-08-08T12:44:51.997Z,24.83
2022-08-08T12:48:04.988Z,21.13
2022-08-08T12:50:57.342Z,15.40
2022-08-08T12:53:59.486Z,17.67
2022-08-08T12:56:52.869Z,14.95
2022-08-08T13:00:04.640Z,19.73
2022-08-08T13:03:01.769Z,16.20
2022-08-08T13:06:05.492Z,15.60
2022-08-08T13:08:56.755Z,20.83
2022-08-08T13:12:27.335Z,17.58
2022-08-08T13:15:08.364Z,14.15
2022-08-08T13:18:10.955Z,11.93
2022-08-08T13:21:04.350Z,11.63
2022-08-08T13:23:58.432Z,9.13
2022-08-08T13:26:47.967Z,11.30
2022-08-08T13:29:49.006Z,9.70
2022-08-08T13:32:41.260Z,11.52
2022-08-08T13:35:41.153Z,10.73
2022-08-08T13:38:39.774Z,10.05
2022-08-08T13:41:38.859Z,10.00
2022-08-08T13:44:33.226Z,8.55
2022-08-08T13:47:23.674Z,9.73
2022-08-08T13:50:35.491Z,7.72
2022-08-08T13:53:36.797Z,9.93
2022-08-08T13:56:59.780Z,7.88
2022-08-08T13:59:51.349Z,9.52
2022-08-08T14:02:42.000Z,8.68
2022-08-08T14:05:36.372Z,8.60
2022-08-08T14:08:47.302Z,25.98
2022-08-08T14:11:37.224Z,11.68
2022-08-08T14:15:00.272Z,11.52
2022-08-08T14:18:34.706Z,10.80
2022-08-08T14:21:20.261Z,10.77
2022-08-08T14:24:10.566Z,11.75
2022-08-08T14:27:07.836Z,11.13
2022-08-08T14:30:19.702Z,12.30
2022-08-08T14:33:15.196Z,14.20
2022-08-08T14:36:09.433Z,14.30
2022-08-08T14:39:01.662Z,13.15
2022-08-08T14:42:07.598Z,15.05
2022-08-08T14:45:00.253Z,12.07
2022-08-08T14:48:01.998Z,15.40
2022-08-08T14:50:52.516Z,17.60
2022-08-08T14:53:55.757Z,17.77
2022-08-08T14:56:46.714Z,18.50
2022-08-08T14:59:50.724Z,17.00
2022-08-08T15:02:58.877Z,19.98
2022-08-08T15:06:00.357Z,20.25
2022-08-08T15:08:54.486Z,20.77
2022-08-08T15:11:46.447Z,23.50
2022-08-08T15:14:45.686Z,25.00
2022-08-08T15:17:36.632Z,27.05
2022-08-08T15:20:26.958Z,36.13
2022-08-08T15:23:17.044Z,25.90
2022-08-08T15:26:12.619Z,28.88
2022-08-08T15:29:02.888Z,30.85
2022-08-08T15:32:17.834Z,29.52
2022-08-08T15:35:07.540Z,26.10
2022-08-08T15:37:59.631Z,25.27
2022-08-08T15:40:49.704Z,26.27
2022-08-08T15:43:41.775Z,23.60
2022-08-08T15:46:51.385Z,25.27
2022-08-08T15:49:45.799Z,23.70
2022-08-08T15:52:39.381Z,23.55
2022-08-08T15:55:29.999Z,27.77
2022-08-08T15:58:20.041Z,29.35
2022-08-08T16:01:18.485Z,21.55
2022-08-08T16:04:13.893Z,21.17
2022-08-08T16:07:06.071Z,21.02
2022-08-08T16:13:07.229Z,20.85
2022-08-08T16:13:30.119Z,19.35
2022-08-08T16:16:18.854Z,20.05
2022-08-08T16:19:12.039Z,19.45
2022-08-08T16:22:04.244Z,19.83
2022-08-08T16:24:55.762Z,17.67
2022-08-08T16:27:57.054Z,20.00
2022-08-08T16:30:48.518Z,18.35
2022-08-08T16:33:40.318Z,19.40
2022-08-08T16:36:33.478Z,18.88
2022-08-08T16:40:00.032Z,19.38
2022-08-08T16:42:34.985Z,18.40
2022-08-08T16:46:38.492Z,19.67
2022-08-08T16:48:38.869Z,19.52
2022-08-08T16:55:03.432Z,23.08
2022-08-08T16:55:14.001Z,22.27
2022-08-08T16:58:16.349Z,25.35
2022-08-08T17:01:00.210Z,21.30
2022-08-08T17:03:58.811Z,27.35
2022-08-08T17:06:51.770Z,22.98
2022-08-08T17:09:45.115Z,21.67
2022-08-08T17:12:36.658Z,21.80
2022-08-08T17:15:27.559Z,21.75
2022-08-08T17:18:37.273Z,22.05
2022-08-08T17:21:30.151Z,24.00
2022-08-08T17:24:28.268Z,21.48
2022-08-08T17:27:20.255Z,20.35
2022-08-08T17:30:27.368Z,20.63
2022-08-08T17:34:35.138Z,24.83
2022-08-08T17:36:31.207Z,21.67
2022-08-08T17:39:46.045Z,20.38
2022-08-08T17:42:30.838Z,24.52
2022-08-08T17:45:22.901Z,25.58
2022-08-08T17:48:21.122Z,30.42
2022-08-08T17:51:20.913Z,31.48
2022-08-08T17:54:21.952Z,31.63
2022-08-08T17:57:14.406Z,34.00
2022-08-08T18:00:13.231Z,33.55
2022-08-08T18:03:13.168Z,32.60
2022-08-08T18:06:03.654Z,35.13
2022-08-08T18:09:09.921Z,36.38
2022-08-08T18:12:03.107Z,40.47
2022-08-08T18:14:54.142Z,43.13
2022-08-08T18:18:09.599Z,42.35
2022-08-08T18:20:59.390Z,42.83
2022-08-08T18:23:53.021Z,44.03
2022-08-08T18:26:46.621Z,40.50
2022-08-08T18:29:44.851Z,37.72
2022-08-08T18:32:38.651Z,36.65
2022-08-08T18:35:41.506Z,35.33
2022-08-08T18:38:37.926Z,33.35
2022-08-08T18:41:51.877Z,36.33
2022-08-08T18:44:37.715Z,32.78
2022-08-08T18:47:28.297Z,32.33
2022-08-08T18:50:21.184Z,29.40
2022-08-08T18:53:14.417Z,28.40
2022-08-08T18:56:08.074Z,30.10
2022-08-08T18:58:59.119Z,30.73
2022-08-08T19:02:26.808Z,28.35
2022-08-08T19:04:58.765Z,29.60
2022-08-08T19:07:52.300Z,29.55
2022-08-08T19:10:43.119Z,28.95
2022-08-08T19:13:52.390Z,29.83
2022-08-08T19:16:45.881Z,28.45
2022-08-08T19:19:37.686Z,28.45
2022-08-08T19:22:34.277Z,30.50
2022-08-08T19:26:02.042Z,24.85
2022-08-08T19:28:36.538Z,22.33
2022-08-08T19:31:31.890Z,22.92
2022-08-08T19:34:35.961Z,20.85
2022-08-08T19:37:43.901Z,23.08
2022-08-08T19:40:39.065Z,25.80
2022-08-08T19:43:30.668Z,22.75
2022-08-08T19:46:22.411Z,22.83
2022-08-08T19:49:12.570Z,21.33
2022-08-08T19:52:02.305Z,22.42
2022-08-08T19:54:56.823Z,20.90
2022-08-08T19:57:51.969Z,21.88
2022-08-08T20:00:41.716Z,21.27
2022-08-08T20:04:00.963Z,23.75
2022-08-08T20:06:41.733Z,21.08
2022-08-08T20:09:45.008Z,20.05
2022-08-08T20:12:35.884Z,21.23
2022-08-08T20:15:52.717Z,20.27
2022-08-08T20:18:53.570Z,21.95
2022-08-08T20:21:44.194Z,26.10
2022-08-08T20:24:35.563Z,22.73
2022-08-08T20:27:43.899Z,23.92
2022-08-08T20:30:56.102Z,32.63
2022-08-08T20:34:27.283Z,46.38
2022-08-08T20:36:59.163Z,28.33
2022-08-08T20:39:51.796Z,24.23
2022-08-08T20:42:41.749Z,28.63
2022-08-08T20:45:55.231Z,21.90
2022-08-08T20:48:44.679Z,19.90
2022-08-08T20:51:33.681Z,17.58
2022-08-08T20:54:26.328Z,19.50
2022-08-08T20:57:19.057Z,15.27
2022-08-08T21:00:11.800Z,15.55
2022-08-08T21:03:02.671Z,16.27
2022-08-08T21:05:59.417Z,13.27
2022-08-08T21:08:49.734Z,13.80
2022-08-08T21:11:51.917Z,14.98
2022-08-08T21:14:51.741Z,14.27
2022-08-08T21:17:43.189Z,13.05
2022-08-08T21:20:34.983Z,12.52
2022-08-08T21:24:02.384Z,12.80
2022-08-08T21:26:35.236Z,12.80
2022-08-08T21:30:02.644Z,14.15
2022-08-08T21:32:34.737Z,12.10
2022-08-08T21:36:19.231Z,12.32
2022-08-08T21:38:36.764Z,12.50
2022-08-08T21:41:38.014Z,12.13
2022-08-08T21:44:32.757Z,14.20
2022-08-08T21:48:06.529Z,9.60
2022-08-08T21:50:32.095Z,9.68
2022-08-08T21:54:30.981Z,10.88
2022-08-08T21:56:41.979Z,12.15
2022-08-08T22:00:02.958Z,11.57
2022-08-08T22:02:48.492Z,13.05
2022-08-08T22:05:41.691Z,14.57
2022-08-08T22:08:37.063Z,15.93
2022-08-08T22:12:02.510Z,16.95
2022-08-08T22:14:42.555Z,16.80
2022-08-08T22:17:41.467Z,17.23
2022-08-08T22:20:35.963Z,26.98
2022-08-08T22:23:29.851Z,21.05
2022-08-08T22:26:30.943Z,22.95
2022-08-08T22:30:01.812Z,23.27
2022-08-08T22:32:30.931Z,22.48
2022-08-08T22:35:23.685Z,16.00
2022-08-08T22:38:14.344Z,16.08
2022-08-08T22:41:16.339Z,17.05
2022-08-08T22:44:11.859Z,16.17
2022-08-08T22:47:17.553Z,16.50
2022-08-08T22:50:26.813Z,19.65
2022-08-08T22:54:30.567Z,19.30
2022-08-08T22:56:28.284Z,16.05
2022-08-08T22:59:19.431Z,16.98
2022-08-08T23:02:12.782Z,20.58
2022-08-08T23:05:05.075Z,16.77
2022-08-08T23:07:58.116Z,15.48
2022-08-08T23:10:52.637Z,14.50
2022-08-08T23:13:53.807Z,15.93
2022-08-08T23:16:54.768Z,13.70
2022-08-08T23:19:54.160Z,17.63
2022-08-08T23:22:43.720Z,16.70
2022-08-08T23:25:42.698Z,18.08
2022-08-08T23:28:38.018Z,15.93
2022-08-08T23:31:27.518Z,13.10
2022-08-08T23:34:19.590Z,12.68
2022-08-08T23:37:11.720Z,18.00
2022-08-08T23:40:01.444Z,12.70
2022-08-08T23:42:52.516Z,12.18
2022-08-08T23:49:04.617Z,14.32
2022-08-08T23:49:05.463Z,22.02
2022-08-08T23:52:06.425Z,15.35
2022-08-08T23:55:07.387Z,15.93
2022-08-08T23:58:07.962Z,12.95
